Time;durP1;ratioP1;P1;durP2;ratioP2;P2;SDS_P1;SDS_P2;PMS_P1;PMS_P2;Temp;Humidity;BMP_temperature;BMP_pressure;BME280_temperature;BME280_humidity;BME280_pressure;Samples;Min_cycle;Max_cycle;Signal;HPM_P1;HPM_P2
2022/07/17 00:01:01;;;;;;;4.93;1.20;;;;;;;;;;5039429;28;20727;-74
2022/07/17 00:03:26;;;;;;;3.45;1.30;;;;;;;;;;5040233;28;20183;-73
2022/07/17 00:05:51;;;;;;;5.55;1.17;;;;;;;;;;5030308;28;20182;-73
2022/07/17 00:08:16;;;;;;;3.75;1.92;;;;;;;;;;5030739;28;20572;-73
2022/07/17 00:10:42;;;;;;;4.68;2.78;;;;;;;;;;5028884;28;20687;-73
2022/07/17 00:13:08;;;;;;;5.78;3.17;;;;;;;;;;5030520;28;20249;-73
2022/07/17 00:15:33;;;;;;;7.75;3.50;;;;;;;;;;5023409;28;20179;-74
2022/07/17 00:17:59;;;;;;;6.00;2.60;;;;;;;;;;5023845;28;20679;-73
2022/07/17 00:20:25;;;;;;;5.70;3.00;;;;;;;;;;4999247;28;20245;-73
2022/07/17 00:22:50;;;;;;;4.72;2.30;;;;;;;;;;5029056;28;20214;-73
2022/07/17 00:25:16;;;;;;;4.70;2.40;;;;;;;;;;5026940;28;20634;-73
2022/07/17 00:27:41;;;;;;;4.60;2.25;;;;;;;;;;5037508;28;20209;-73
2022/07/17 00:30:07;;;;;;;5.72;2.75;;;;;;;;;;5033680;28;20182;-73
2022/07/17 00:32:32;;;;;;;4.38;2.60;;;;;;;;;;5011912;28;20185;-73
2022/07/17 00:34:58;;;;;;;4.55;2.10;;;;;;;;;;5029424;28;20254;-73
2022/07/17 00:37:23;;;;;;;5.22;1.90;;;;;;;;;;5023471;28;20222;-73
2022/07/17 00:39:48;;;;;;;4.85;2.60;;;;;;;;;;5011831;28;20218;-73
2022/07/17 00:42:14;;;;;;;2.83;1.35;;;;;;;;;;5029994;28;20648;-73
2022/07/17 00:44:40;;;;;;;5.28;2.17;;;;;;;;;;5025883;28;20191;-73
2022/07/17 00:47:09;;;;;;;5.07;1.83;;;;;;;;;;5011345;28;20280;-73
2022/07/17 00:49:35;;;;;;;4.18;1.88;;;;;;;;;;5029309;28;20899;-73
2022/07/17 00:52:00;;;;;;;3.42;1.80;;;;;;;;;;5036562;28;20174;-73
2022/07/17 00:54:26;;;;;;;2.90;1.85;;;;;;;;;;5033642;28;20261;-73
2022/07/17 00:56:51;;;;;;;5.22;2.15;;;;;;;;;;5030714;28;20177;-73
2022/07/17 00:59:18;;;;;;;4.22;1.70;;;;;;;;;;5030756;28;20209;-73
2022/07/17 01:01:43;;;;;;;3.47;1.42;;;;;;;;;;5030010;28;20186;-73
2022/07/17 01:04:08;;;;;;;1.30;1.20;;;;;;;;;;5028156;28;20766;-73
2022/07/17 01:06:34;;;;;;;3.15;1.40;;;;;;;;;;5028819;28;20532;-73
2022/07/17 01:08:59;;;;;;;2.58;1.40;;;;;;;;;;5034264;28;20201;-74
2022/07/17 01:11:24;;;;;;;2.25;1.10;;;;;;;;;;5034858;28;20271;-73
2022/07/17 01:13:49;;;;;;;2.35;1.30;;;;;;;;;;5034629;28;20266;-74
2022/07/17 01:16:15;;;;;;;2.60;1.33;;;;;;;;;;5026818;28;20228;-73
2022/07/17 01:18:41;;;;;;;3.47;1.63;;;;;;;;;;5023783;28;20206;-74
2022/07/17 01:21:06;;;;;;;2.47;1.58;;;;;;;;;;5030850;28;20616;-74
2022/07/17 01:23:32;;;;;;;2.70;1.65;;;;;;;;;;5023555;28;20272;-73
2022/07/17 01:25:57;;;;;;;2.33;1.33;;;;;;;;;;5036581;28;20186;-73
2022/07/17 01:28:22;;;;;;;6.72;1.98;;;;;;;;;;5033999;28;20219;-73
2022/07/17 01:30:48;;;;;;;5.13;1.77;;;;;;;;;;5025318;28;20598;-74
2022/07/17 01:33:13;;;;;;;3.40;1.80;;;;;;;;;;5027830;28;20211;-74
2022/07/17 01:35:39;;;;;;;3.83;1.90;;;;;;;;;;5021491;28;20206;-74
2022/07/17 01:38:04;;;;;;;4.07;1.77;;;;;;;;;;5035943;28;20209;-73
2022/07/17 01:40:29;;;;;;;3.27;1.53;;;;;;;;;;5028505;28;20662;-73
2022/07/17 01:42:54;;;;;;;8.90;2.60;;;;;;;;;;5028782;28;20229;-73
2022/07/17 01:45:19;;;;;;;3.80;2.03;;;;;;;;;;5032276;28;20189;-73
2022/07/17 01:47:45;;;;;;;5.40;2.70;;;;;;;;;;5025750;28;20710;-73
2022/07/17 01:50:10;;;;;;;6.23;2.93;;;;;;;;;;5031509;28;20171;-73
2022/07/17 01:52:37;;;;;;;7.75;2.85;;;;;;;;;;5028213;28;20229;-73
2022/07/17 01:55:03;;;;;;;8.27;3.85;;;;;;;;;;5040454;28;20659;-73
2022/07/17 01:57:28;;;;;;;7.57;3.60;;;;;;;;;;5034312;28;20209;-73
2022/07/17 01:59:53;;;;;;;9.77;4.05;;;;;;;;;;5034890;28;20197;-73
2022/07/17 02:02:19;;;;;;;7.47;4.00;;;;;;;;;;5028221;28;20177;-73
2022/07/17 02:04:45;;;;;;;7.88;4.20;;;;;;;;;;5035826;28;20185;-73
2022/07/17 02:07:10;;;;;;;8.60;4.95;;;;;;;;;;5022363;28;20671;-73
2022/07/17 02:09:35;;;;;;;8.65;3.45;;;;;;;;;;5025131;28;20177;-73
2022/07/17 02:12:01;;;;;;;6.97;3.40;;;;;;;;;;5035220;28;20171;-73
2022/07/17 02:14:26;;;;;;;4.77;3.30;;;;;;;;;;5032384;28;20178;-73
2022/07/17 02:16:51;;;;;;;9.60;3.10;;;;;;;;;;5031936;28;20181;-73
2022/07/17 02:19:17;;;;;;;4.23;2.73;;;;;;;;;;5032256;28;20296;-73
2022/07/17 02:21:42;;;;;;;7.90;2.53;;;;;;;;;;5027935;28;20609;-73
2022/07/17 02:24:07;;;;;;;4.73;2.27;;;;;;;;;;5016151;28;20551;-73
2022/07/17 02:26:32;;;;;;;7.10;2.63;;;;;;;;;;5023848;28;20178;-73
2022/07/17 02:28:58;;;;;;;4.80;2.57;;;;;;;;;;5035049;28;20201;-74
2022/07/17 02:31:23;;;;;;;3.53;2.00;;;;;;;;;;5025442;28;20214;-73
2022/07/17 02:33:48;;;;;;;3.60;2.15;;;;;;;;;;5030515;28;20189;-73
2022/07/17 02:36:14;;;;;;;4.10;2.00;;;;;;;;;;5032434;28;20566;-73
2022/07/17 02:38:39;;;;;;;6.83;2.27;;;;;;;;;;5033127;28;20214;-72
2022/07/17 02:41:04;;;;;;;2.03;1.63;;;;;;;;;;5033725;28;20209;-72
2022/07/17 02:43:29;;;;;;;6.93;1.70;;;;;;;;;;5038436;28;20170;-72
2022/07/17 02:45:54;;;;;;;4.60;1.90;;;;;;;;;;5013957;28;20190;-72
2022/07/17 02:48:20;;;;;;;4.17;1.77;;;;;;;;;;5029314;28;20249;-72
2022/07/17 02:50:45;;;;;;;6.00;1.50;;;;;;;;;;5013736;28;20268;-72
2022/07/17 02:53:10;;;;;;;4.10;1.93;;;;;;;;;;5015384;28;20190;-72
2022/07/17 02:55:35;;;;;;;4.83;2.63;;;;;;;;;;5042132;28;20631;-72
2022/07/17 02:58:00;;;;;;;5.97;1.70;;;;;;;;;;5030235;28;20209;-72
2022/07/17 03:00:26;;;;;;;4.53;1.70;;;;;;;;;;5032234;28;20214;-72
2022/07/17 03:02:52;;;;;;;4.70;1.70;;;;;;;;;;5023187;28;20214;-72
2022/07/17 03:05:17;;;;;;;2.73;1.47;;;;;;;;;;5033210;28;20190;-73
2022/07/17 03:07:44;;;;;;;5.70;1.60;;;;;;;;;;5029390;28;20205;-72
2022/07/17 03:10:09;;;;;;;3.13;1.70;;;;;;;;;;5035420;28;20177;-72
2022/07/17 03:12:34;;;;;;;5.17;1.40;;;;;;;;;;5031708;28;20699;-72
2022/07/17 03:14:59;;;;;;;4.23;1.80;;;;;;;;;;5038815;28;20177;-72
2022/07/17 03:17:25;;;;;;;4.67;1.87;;;;;;;;;;5020477;28;20193;-75
2022/07/17 03:19:51;;;;;;;3.73;2.57;;;;;;;;;;5036710;28;20178;-72
2022/07/17 03:22:16;;;;;;;5.13;1.90;;;;;;;;;;5021928;28;20639;-73
2022/07/17 03:24:41;;;;;;;3.13;1.73;;;;;;;;;;5034069;28;20800;-72
2022/07/17 03:27:07;;;;;;;2.90;1.60;;;;;;;;;;5029163;28;20659;-72
2022/07/17 03:29:32;;;;;;;5.23;1.90;;;;;;;;;;5032726;28;20343;-72
2022/07/17 03:31:57;;;;;;;8.20;1.97;;;;;;;;;;5026676;28;20185;-73
2022/07/17 03:34:22;;;;;;;4.30;1.67;;;;;;;;;;5032755;28;20189;-73
2022/07/17 03:36:48;;;;;;;3.17;1.60;;;;;;;;;;5044492;28;20201;-72
2022/07/17 03:39:13;;;;;;;6.63;1.30;;;;;;;;;;5035935;28;20386;-72
2022/07/17 03:41:38;;;;;;;3.77;1.70;;;;;;;;;;5031146;28;20677;-72
2022/07/17 03:44:03;;;;;;;4.23;1.63;;;;;;;;;;5028824;28;20725;-74
2022/07/17 03:46:29;;;;;;;2.77;1.60;;;;;;;;;;5036091;28;20177;-71
2022/07/17 03:48:54;;;;;;;2.80;1.50;;;;;;;;;;5030704;28;20202;-74
2022/07/17 03:51:19;;;;;;;2.87;1.60;;;;;;;;;;5025941;28;20182;-73
2022/07/17 03:53:44;;;;;;;3.33;1.37;;;;;;;;;;5018033;28;20189;-72
2022/07/17 03:56:09;;;;;;;5.50;1.60;;;;;;;;;;5026606;28;20586;-73
2022/07/17 03:58:35;;;;;;;7.57;2.13;;;;;;;;;;5034324;28;20212;-73
2022/07/17 04:01:00;;;;;;;3.03;1.40;;;;;;;;;;5030257;28;20182;-73
2022/07/17 04:03:25;;;;;;;3.07;1.67;;;;;;;;;;5040176;28;20173;-73
2022/07/17 04:05:50;;;;;;;2.03;1.40;;;;;;;;;;5030680;28;20186;-73
2022/07/17 04:08:16;;;;;;;6.47;1.83;;;;;;;;;;5038907;28;20251;-73
2022/07/17 04:10:41;;;;;;;4.03;1.97;;;;;;;;;;5026063;28;20171;-73
2022/07/17 04:13:06;;;;;;;4.40;1.77;;;;;;;;;;5024226;28;20178;-72
2022/07/17 04:15:49;;;;;;;4.00;1.97;;;;;;;;;;5039017;28;20182;-73
2022/07/17 04:18:15;;;;;;;4.93;1.60;;;;;;;;;;5025193;28;20205;-73
2022/07/17 04:20:41;;;;;;;5.37;1.73;;;;;;;;;;5032367;28;20237;-72
2022/07/17 04:23:06;;;;;;;2.87;1.70;;;;;;;;;;5038290;28;20265;-73
2022/07/17 04:25:31;;;;;;;3.83;1.70;;;;;;;;;;5023877;28;20270;-73
2022/07/17 04:27:56;;;;;;;3.70;1.50;;;;;;;;;;5035089;28;20209;-73
2022/07/17 04:30:21;;;;;;;3.80;2.40;;;;;;;;;;5026847;28;20589;-73
2022/07/17 04:32:47;;;;;;;3.27;1.90;;;;;;;;;;5032386;28;20171;-73
2022/07/17 04:35:12;;;;;;;5.57;1.75;;;;;;;;;;5012462;28;20177;-73
2022/07/17 04:37:37;;;;;;;9.18;3.35;;;;;;;;;;5038172;28;20197;-73
2022/07/17 04:40:02;;;;;;;4.38;2.03;;;;;;;;;;5030282;28;20786;-73
2022/07/17 04:42:27;;;;;;;3.67;1.65;;;;;;;;;;5031480;28;20193;-73
2022/07/17 04:44:53;;;;;;;4.85;1.70;;;;;;;;;;5031956;28;20710;-73
2022/07/17 04:47:18;;;;;;;4.38;1.45;;;;;;;;;;5036480;28;20188;-73
2022/07/17 04:49:43;;;;;;;6.82;2.17;;;;;;;;;;5014524;28;20257;-73
2022/07/17 04:52:08;;;;;;;6.03;1.70;;;;;;;;;;5023175;28;20540;-73
2022/07/17 04:54:33;;;;;;;3.15;1.52;;;;;;;;;;5030254;28;20178;-73
2022/07/17 04:56:59;;;;;;;4.97;2.38;;;;;;;;;;5033843;28;20203;-73
2022/07/17 04:59:24;;;;;;;6.25;1.48;;;;;;;;;;5034686;28;20233;-73
2022/07/17 05:01:49;;;;;;;3.30;1.67;;;;;;;;;;5040596;28;21885;-73
2022/07/17 05:04:14;;;;;;;1.58;1.30;;;;;;;;;;5035099;28;20188;-73
2022/07/17 05:06:39;;;;;;;3.38;1.95;;;;;;;;;;5036147;28;20182;-73
2022/07/17 05:09:05;;;;;;;3.28;1.35;;;;;;;;;;5029047;28;20201;-73
2022/07/17 05:11:30;;;;;;;4.78;1.23;;;;;;;;;;5019725;28;20623;-73
2022/07/17 05:13:55;;;;;;;4.00;1.38;;;;;;;;;;5038076;28;20171;-73
2022/07/17 05:16:21;;;;;;;4.80;1.45;;;;;;;;;;5028031;28;20276;-73
2022/07/17 05:18:46;;;;;;;4.10;1.23;;;;;;;;;;5034000;28;20281;-73
2022/07/17 05:21:11;;;;;;;6.60;1.40;;;;;;;;;;5025929;28;20209;-73
2022/07/17 05:23:36;;;;;;;4.30;1.23;;;;;;;;;;5033216;28;20178;-73
2022/07/17 05:26:02;;;;;;;2.20;1.38;;;;;;;;;;5022638;28;20553;-74
2022/07/17 05:28:27;;;;;;;1.73;1.13;;;;;;;;;;5021256;28;20218;-74
2022/07/17 05:30:52;;;;;;;5.43;1.33;;;;;;;;;;5033297;28;20663;-74
2022/07/17 05:33:17;;;;;;;5.57;1.50;;;;;;;;;;5026260;28;20213;-72
2022/07/17 05:35:42;;;;;;;2.70;1.10;;;;;;;;;;5030024;28;21005;-73
2022/07/17 05:38:09;;;;;;;4.78;1.50;;;;;;;;;;5036742;28;20198;-72
2022/07/17 05:40:34;;;;;;;8.35;1.60;;;;;;;;;;5023613;28;20190;-74
2022/07/17 05:43:00;;;;;;;3.77;1.20;;;;;;;;;;5034789;28;20182;-72
2022/07/17 05:45:25;;;;;;;3.25;1.10;;;;;;;;;;5008731;28;20427;-72
2022/07/17 05:47:50;;;;;;;3.33;1.55;;;;;;;;;;5024519;28;20214;-74
2022/07/17 05:50:15;;;;;;;3.10;1.27;;;;;;;;;;5032501;28;20227;-73
2022/07/17 05:52:40;;;;;;;4.68;1.33;;;;;;;;;;5022821;28;20190;-74
2022/07/17 05:55:06;;;;;;;3.60;1.10;;;;;;;;;;5027821;28;20178;-74
2022/07/17 05:57:31;;;;;;;3.80;1.38;;;;;;;;;;5016517;28;20197;-74
2022/07/17 05:59:56;;;;;;;5.45;1.48;;;;;;;;;;5025170;28;20174;-72
2022/07/17 06:02:21;;;;;;;3.63;1.42;;;;;;;;;;5036558;28;20209;-74
2022/07/17 06:04:46;;;;;;;2.92;1.40;;;;;;;;;;5024676;28;20662;-74
2022/07/17 06:07:12;;;;;;;5.97;1.60;;;;;;;;;;5033868;28;20175;-72
2022/07/17 06:09:37;;;;;;;3.30;1.30;;;;;;;;;;5029475;28;20206;-73
2022/07/17 06:12:02;;;;;;;6.18;2.38;;;;;;;;;;5033751;28;20710;-74
2022/07/17 06:14:27;;;;;;;4.05;1.55;;;;;;;;;;5037537;28;20188;-72
2022/07/17 06:16:53;;;;;;;3.40;1.65;;;;;;;;;;5015792;28;20186;-72
2022/07/17 06:19:18;;;;;;;5.15;1.70;;;;;;;;;;5012760;28;20205;-72
2022/07/17 06:21:43;;;;;;;7.05;2.33;;;;;;;;;;5028546;28;20683;-72
2022/07/17 06:24:08;;;;;;;3.72;1.50;;;;;;;;;;5037430;28;20213;-72
2022/07/17 06:26:33;;;;;;;2.25;1.17;;;;;;;;;;5037816;28;20182;-72
2022/07/17 06:28:58;;;;;;;4.43;1.55;;;;;;;;;;5029185;28;20206;-72
2022/07/17 06:31:24;;;;;;;3.37;1.10;;;;;;;;;;5032958;28;20246;-72
2022/07/17 06:33:49;;;;;;;6.45;1.13;;;;;;;;;;5033104;28;20435;-72
2022/07/17 06:36:14;;;;;;;6.72;1.20;;;;;;;;;;5032677;28;20186;-72
2022/07/17 06:38:39;;;;;;;6.00;1.67;;;;;;;;;;5015539;28;20214;-72
2022/07/17 06:41:05;;;;;;;4.78;1.48;;;;;;;;;;5032919;28;20280;-72
2022/07/17 06:43:30;;;;;;;4.43;1.60;;;;;;;;;;5032291;28;20720;-72
2022/07/17 06:45:55;;;;;;;4.07;1.97;;;;;;;;;;5031555;28;20759;-73
2022/07/17 06:48:21;;;;;;;1.98;0.90;;;;;;;;;;5033203;28;20466;-73
2022/07/17 06:50:46;;;;;;;5.85;1.30;;;;;;;;;;5032513;28;20182;-73
2022/07/17 06:53:11;;;;;;;7.68;1.20;;;;;;;;;;5027394;28;20268;-73
2022/07/17 06:55:37;;;;;;;3.38;1.33;;;;;;;;;;5033763;28;20181;-73
2022/07/17 06:58:02;;;;;;;4.87;1.33;;;;;;;;;;5031794;28;20208;-73
2022/07/17 07:00:27;;;;;;;2.72;1.23;;;;;;;;;;5025587;28;20919;-73
2022/07/17 07:02:52;;;;;;;5.07;1.08;;;;;;;;;;5026834;28;20182;-73
2022/07/17 07:05:17;;;;;;;3.40;1.00;;;;;;;;;;5016459;28;20181;-72
2022/07/17 07:07:43;;;;;;;4.90;1.27;;;;;;;;;;5020261;28;20459;-73
2022/07/17 07:10:08;;;;;;;4.10;1.10;;;;;;;;;;5021530;28;20182;-73
2022/07/17 07:12:33;;;;;;;3.55;0.90;;;;;;;;;;5032066;28;20481;-73
2022/07/17 07:14:58;;;;;;;4.70;1.30;;;;;;;;;;5038444;28;20275;-72
2022/07/17 07:17:23;;;;;;;3.73;0.97;;;;;;;;;;5024670;28;20208;-73
2022/07/17 07:19:49;;;;;;;2.08;0.80;;;;;;;;;;5035761;28;20474;-73
2022/07/17 07:22:14;;;;;;;2.37;0.70;;;;;;;;;;5031315;28;20178;-73
2022/07/17 07:24:39;;;;;;;5.30;0.93;;;;;;;;;;5030767;28;20427;-73
2022/07/17 07:27:04;;;;;;;4.10;1.10;;;;;;;;;;5031245;28;21043;-72
2022/07/17 07:29:30;;;;;;;3.75;0.88;;;;;;;;;;5014795;28;20353;-72
2022/07/17 07:31:55;;;;;;;4.75;0.90;;;;;;;;;;5014752;28;20185;-72
2022/07/17 07:34:20;;;;;;;3.13;0.73;;;;;;;;;;5035341;28;20265;-72
2022/07/17 07:36:46;;;;;;;3.58;1.00;;;;;;;;;;5028881;28;20181;-72
2022/07/17 07:39:11;;;;;;;2.13;0.90;;;;;;;;;;5013581;28;20288;-72
2022/07/17 07:41:36;;;;;;;2.50;0.98;;;;;;;;;;5031073;28;20193;-72
2022/07/17 07:44:01;;;;;;;2.22;0.80;;;;;;;;;;5023429;28;20246;-72
2022/07/17 07:46:26;;;;;;;2.00;0.77;;;;;;;;;;5032072;28;20211;-72
2022/07/17 07:48:52;;;;;;;2.00;0.73;;;;;;;;;;5011317;28;20972;-71
2022/07/17 07:51:17;;;;;;;2.37;0.90;;;;;;;;;;5014987;28;20451;-71
2022/07/17 07:53:42;;;;;;;3.20;0.80;;;;;;;;;;5002809;28;20427;-72
2022/07/17 07:56:07;;;;;;;2.65;0.77;;;;;;;;;;4998573;28;21811;-71
2022/07/17 07:58:32;;;;;;;3.30;1.13;;;;;;;;;;5014499;28;20285;-71
2022/07/17 08:00:58;;;;;;;3.60;1.13;;;;;;;;;;5019574;28;20264;-72
2022/07/17 08:03:23;;;;;;;2.43;0.67;;;;;;;;;;5006891;28;20960;-73
2022/07/17 08:05:48;;;;;;;3.13;0.93;;;;;;;;;;5008697;28;20455;-69
2022/07/17 08:08:13;;;;;;;2.33;0.70;;;;;;;;;;5001380;28;20456;-71
2022/07/17 08:10:38;;;;;;;3.20;1.10;;;;;;;;;;4998408;28;20428;-71
2022/07/17 08:13:04;;;;;;;2.38;0.80;;;;;;;;;;5003818;28;20201;-71
2022/07/17 08:15:29;;;;;;;3.43;0.70;;;;;;;;;;5002969;28;20284;-71
2022/07/17 08:17:54;;;;;;;5.10;1.00;;;;;;;;;;5001834;28;20565;-71
2022/07/17 08:20:20;;;;;;;1.95;0.65;;;;;;;;;;5009871;28;20521;-71
2022/07/17 08:22:46;;;;;;;3.58;1.02;;;;;;;;;;5007316;28;20179;-71
2022/07/17 08:25:11;;;;;;;3.63;1.05;;;;;;;;;;5000693;28;20221;-71
2022/07/17 08:27:37;;;;;;;3.75;0.88;;;;;;;;;;5000654;28;20599;-71
2022/07/17 08:30:03;;;;;;;4.50;0.73;;;;;;;;;;5023393;28;20201;-71
2022/07/17 08:32:28;;;;;;;1.58;0.68;;;;;;;;;;5025276;28;20283;-71
2022/07/17 08:34:53;;;;;;;2.93;0.90;;;;;;;;;;5030440;28;20661;-71
2022/07/17 08:37:19;;;;;;;2.00;0.83;;;;;;;;;;5029511;28;20177;-70
2022/07/17 08:39:44;;;;;;;4.03;0.80;;;;;;;;;;5012023;28;20637;-70
2022/07/17 08:42:09;;;;;;;3.37;1.10;;;;;;;;;;5029527;28;20462;-70
2022/07/17 08:44:34;;;;;;;2.72;0.90;;;;;;;;;;5026880;28;20186;-70
2022/07/17 08:47:00;;;;;;;4.75;1.10;;;;;;;;;;5031808;28;20175;-70
2022/07/17 08:49:25;;;;;;;4.43;0.90;;;;;;;;;;5027463;28;20210;-70
2022/07/17 08:51:50;;;;;;;1.75;0.80;;;;;;;;;;5027664;28;20220;-70
2022/07/17 08:54:16;;;;;;;3.75;1.15;;;;;;;;;;5013580;28;20186;-70
2022/07/17 08:56:41;;;;;;;1.77;1.00;;;;;;;;;;5027154;28;20213;-69
2022/07/17 08:59:06;;;;;;;3.40;1.05;;;;;;;;;;5029187;28;20209;-69
2022/07/17 09:01:32;;;;;;;3.77;1.17;;;;;;;;;;5026330;28;20182;-68
2022/07/17 09:03:59;;;;;;;2.43;0.80;;;;;;;;;;5011022;28;20945;-69
2022/07/17 09:06:25;;;;;;;3.30;0.98;;;;;;;;;;5023379;28;20423;-69
2022/07/17 09:09:02;;;;;;;3.88;0.90;;;;;;;;;;5024931;28;20719;-69
2022/07/17 09:11:28;;;;;;;2.35;0.85;;;;;;;;;;4998616;28;20175;-69
2022/07/17 09:13:53;;;;;;;6.65;1.00;;;;;;;;;;5005490;28;20182;-68
2022/07/17 09:16:19;;;;;;;4.20;1.10;;;;;;;;;;4997754;28;20179;-69
2022/07/17 09:18:44;;;;;;;1.50;0.60;;;;;;;;;;5002507;28;20956;-69
2022/07/17 09:21:15;;;;;;;4.03;1.00;;;;;;;;;;5001152;28;20257;-68
2022/07/17 09:23:41;;;;;;;2.67;0.93;;;;;;;;;;5001573;28;20671;-69
2022/07/17 09:26:06;;;;;;;1.85;0.82;;;;;;;;;;4996850;28;20205;-69
2022/07/17 09:28:31;;;;;;;1.73;0.73;;;;;;;;;;5002005;28;20625;-70
2022/07/17 09:30:56;;;;;;;2.97;1.30;;;;;;;;;;5001611;28;20185;-70
2022/07/17 09:33:23;;;;;;;1.73;0.80;;;;;;;;;;5005143;28;20171;-70
2022/07/17 09:35:49;;;;;;;2.53;1.02;;;;;;;;;;5001728;28;20984;-70
2022/07/17 09:38:25;;;;;;;1.55;0.70;;;;;;;;;;5005282;28;20272;-69
2022/07/17 09:41:12;;;;;;;2.53;1.08;;;;;;;;;;5001531;28;20187;-70
2022/07/17 09:43:44;;;;;;;1.33;0.50;;;;;;;;;;5008247;28;20201;-69
2022/07/17 09:46:09;;;;;;;2.78;0.80;;;;;;;;;;5002597;28;20202;-69
2022/07/17 09:48:39;;;;;;;2.22;1.00;;;;;;;;;;5002935;28;20203;-69
2022/07/17 09:51:04;;;;;;;2.95;1.00;;;;;;;;;;5002995;28;20329;-69
2022/07/17 09:53:31;;;;;;;1.37;0.90;;;;;;;;;;5004131;28;20683;-70
2022/07/17 09:55:58;;;;;;;3.10;1.08;;;;;;;;;;5004450;28;20416;-69
2022/07/17 09:58:24;;;;;;;2.00;0.95;;;;;;;;;;5003848;28;20253;-69
2022/07/17 10:00:50;;;;;;;3.03;0.95;;;;;;;;;;5003245;28;20625;-70
2022/07/17 10:03:18;;;;;;;3.35;1.00;;;;;;;;;;5003766;28;20195;-70
2022/07/17 10:05:44;;;;;;;1.77;0.90;;;;;;;;;;5003438;28;20200;-70
2022/07/17 10:08:10;;;;;;;1.80;0.77;;;;;;;;;;5003088;28;20222;-69
2022/07/17 10:10:35;;;;;;;3.05;1.13;;;;;;;;;;5003168;28;20244;-69
2022/07/17 10:13:01;;;;;;;2.97;1.30;;;;;;;;;;5034285;28;20182;-70
2022/07/17 10:15:27;;;;;;;2.03;0.95;;;;;;;;;;5014403;28;20182;-70
2022/07/17 10:18:02;;;;;;;3.30;1.27;;;;;;;;;;5031249;28;20194;-70
2022/07/17 10:20:27;;;;;;;2.58;1.33;;;;;;;;;;5013388;28;20183;-70
2022/07/17 10:22:53;;;;;;;3.30;1.20;;;;;;;;;;4993666;28;20894;-70
2022/07/17 10:25:18;;;;;;;2.22;1.17;;;;;;;;;;5002619;28;20189;-69
2022/07/17 10:27:51;;;;;;;3.27;1.10;;;;;;;;;;5009425;28;20211;-69
2022/07/17 10:30:22;;;;;;;5.70;0.95;;;;;;;;;;5027275;28;20463;-70
2022/07/17 10:32:51;;;;;;;2.35;1.05;;;;;;;;;;5028318;28;20171;-70
2022/07/17 10:35:17;;;;;;;3.33;1.02;;;;;;;;;;5032215;28;20181;-70
2022/07/17 10:37:42;;;;;;;2.00;0.90;;;;;;;;;;5029597;28;20203;-70
2022/07/17 10:40:23;;;;;;;4.50;1.35;;;;;;;;;;5035765;28;20190;-69
2022/07/17 10:42:51;;;;;;;3.08;1.05;;;;;;;;;;5032475;28;20686;-70
2022/07/17 10:45:16;;;;;;;2.47;0.98;;;;;;;;;;5031825;28;20179;-70
2022/07/17 10:47:46;;;;;;;3.50;1.30;;;;;;;;;;5031295;28;20280;-70
2022/07/17 10:50:11;;;;;;;3.15;1.45;;;;;;;;;;5031556;28;20178;-70
2022/07/17 10:52:37;;;;;;;1.95;1.10;;;;;;;;;;5030472;28;20703;-70
2022/07/17 10:55:04;;;;;;;3.67;1.25;;;;;;;;;;5027349;28;20178;-69
2022/07/17 10:57:30;;;;;;;3.38;1.40;;;;;;;;;;5030801;28;20252;-70
2022/07/17 10:59:56;;;;;;;3.03;1.25;;;;;;;;;;5030099;28;20182;-70
2022/07/17 11:02:29;;;;;;;5.10;1.45;;;;;;;;;;5030509;28;20841;-70
2022/07/17 11:04:54;;;;;;;2.45;1.17;;;;;;;;;;5027681;28;20182;-69
2022/07/17 11:07:19;;;;;;;2.33;1.63;;;;;;;;;;5003536;28;20181;-70
2022/07/17 11:09:48;;;;;;;2.83;1.30;;;;;;;;;;5004530;28;20263;-70
2022/07/17 11:12:13;;;;;;;1.92;1.40;;;;;;;;;;4998667;28;20178;-69
2022/07/17 11:14:38;;;;;;;2.03;1.10;;;;;;;;;;5007462;28;20725;-69
2022/07/17 11:17:04;;;;;;;3.60;1.50;;;;;;;;;;5002445;28;20185;-70
2022/07/17 11:19:30;;;;;;;2.45;1.17;;;;;;;;;;4987452;28;20189;-69
2022/07/17 11:21:59;;;;;;;2.33;1.42;;;;;;;;;;5009539;28;20174;-68
2022/07/17 11:24:26;;;;;;;5.00;1.65;;;;;;;;;;5002233;28;20217;-69
2022/07/17 11:26:51;;;;;;;2.33;1.48;;;;;;;;;;5001224;28;20175;-69
2022/07/17 11:29:17;;;;;;;4.93;1.52;;;;;;;;;;5004220;28;20265;-69
2022/07/17 11:31:42;;;;;;;3.35;1.60;;;;;;;;;;5003609;28;20674;-69
2022/07/17 11:34:09;;;;;;;1.38;1.17;;;;;;;;;;5000430;28;20264;-70
2022/07/17 11:36:41;;;;;;;3.95;1.55;;;;;;;;;;5000545;28;20186;-70
2022/07/17 11:39:18;;;;;;;4.32;1.60;;;;;;;;;;5000978;28;20202;-70
2022/07/17 11:41:45;;;;;;;3.40;1.50;;;;;;;;;;5004402;28;20481;-70
2022/07/17 11:44:11;;;;;;;2.53;1.48;;;;;;;;;;5006077;28;20185;-70
2022/07/17 11:46:37;;;;;;;3.60;1.92;;;;;;;;;;5018712;28;20201;-69
2022/07/17 11:49:03;;;;;;;3.58;1.70;;;;;;;;;;5002687;28;20740;-69
2022/07/17 11:51:44;;;;;;;2.17;1.50;;;;;;;;;;4987894;28;20174;-68
2022/07/17 11:54:13;;;;;;;1.98;1.60;;;;;;;;;;5005442;28;20185;-70
2022/07/17 11:56:39;;;;;;;2.92;1.70;;;;;;;;;;5002563;28;20174;-70
2022/07/17 11:59:06;;;;;;;3.05;1.70;;;;;;;;;;5004056;28;20723;-70
2022/07/17 12:01:38;;;;;;;3.50;1.60;;;;;;;;;;5000856;28;20196;-69
2022/07/17 12:04:03;;;;;;;2.70;1.88;;;;;;;;;;5002333;28;20232;-70
2022/07/17 12:06:28;;;;;;;2.45;1.27;;;;;;;;;;5007887;28;20185;-69
2022/07/17 12:08:54;;;;;;;2.33;1.80;;;;;;;;;;5029766;28;20599;-70
2022/07/17 12:11:19;;;;;;;4.03;1.30;;;;;;;;;;5013648;28;20189;-69
2022/07/17 12:13:46;;;;;;;2.60;1.30;;;;;;;;;;5008006;28;20181;-69
2022/07/17 12:16:22;;;;;;;3.88;1.90;;;;;;;;;;5001222;28;20419;-68
2022/07/17 12:19:05;;;;;;;2.33;1.73;;;;;;;;;;5007728;28;20303;-69
2022/07/17 12:21:31;;;;;;;3.22;1.70;;;;;;;;;;5008594;28;20264;-69
2022/07/17 12:23:58;;;;;;;2.05;1.50;;;;;;;;;;5003442;28;20265;-69
2022/07/17 12:26:23;;;;;;;2.42;1.27;;;;;;;;;;5001369;28;20185;-69
2022/07/17 12:28:48;;;;;;;3.65;2.00;;;;;;;;;;5013413;28;20279;-69
2022/07/17 12:31:14;;;;;;;3.87;1.93;;;;;;;;;;5028667;28;20682;-69
2022/07/17 12:33:39;;;;;;;3.00;1.95;;;;;;;;;;5028963;28;20193;-69
2022/07/17 12:36:05;;;;;;;4.68;2.00;;;;;;;;;;5019656;28;20186;-70
2022/07/17 12:38:30;;;;;;;3.45;1.80;;;;;;;;;;5024206;28;20229;-69
2022/07/17 12:40:55;;;;;;;2.43;1.77;;;;;;;;;;5022437;28;20200;-69
2022/07/17 12:43:21;;;;;;;3.20;1.83;;;;;;;;;;5028652;28;20473;-69
2022/07/17 12:45:46;;;;;;;6.28;1.90;;;;;;;;;;5029734;28;20623;-69
2022/07/17 12:48:11;;;;;;;2.73;1.50;;;;;;;;;;5029072;28;20209;-69
2022/07/17 12:50:37;;;;;;;1.67;1.40;;;;;;;;;;5030826;28;20427;-70
2022/07/17 12:53:02;;;;;;;2.28;1.58;;;;;;;;;;5026444;28;20178;-70
2022/07/17 12:55:27;;;;;;;3.37;1.77;;;;;;;;;;5026313;28;20174;-69
2022/07/17 12:57:53;;;;;;;3.00;1.47;;;;;;;;;;5022573;28;20197;-70
2022/07/17 13:00:18;;;;;;;2.03;1.60;;;;;;;;;;5015002;28;20485;-69
2022/07/17 13:02:43;;;;;;;2.75;1.80;;;;;;;;;;5000821;28;20848;-70
2022/07/17 13:05:08;;;;;;;3.17;1.87;;;;;;;;;;5002725;28;20289;-69
2022/07/17 13:07:34;;;;;;;2.37;2.07;;;;;;;;;;5002478;28;20839;-70
2022/07/17 13:09:59;;;;;;;5.38;1.80;;;;;;;;;;5002612;28;20232;-70
2022/07/17 13:12:24;;;;;;;5.35;2.20;;;;;;;;;;4989207;28;20561;-69
2022/07/17 13:14:49;;;;;;;3.67;1.73;;;;;;;;;;5009631;28;20182;-69
2022/07/17 13:17:15;;;;;;;4.60;1.70;;;;;;;;;;5007038;28;20441;-69
2022/07/17 13:19:40;;;;;;;2.80;2.00;;;;;;;;;;5008844;28;20192;-69
2022/07/17 13:22:05;;;;;;;4.35;1.65;;;;;;;;;;5012887;28;20197;-69
2022/07/17 13:24:31;;;;;;;2.40;1.50;;;;;;;;;;4987289;28;20210;-69
2022/07/17 13:26:56;;;;;;;2.93;2.10;;;;;;;;;;5004817;28;20232;-69
2022/07/17 13:29:21;;;;;;;2.67;2.10;;;;;;;;;;5005773;28;20466;-69
2022/07/17 13:31:46;;;;;;;3.73;2.13;;;;;;;;;;5011757;28;20218;-70
2022/07/17 13:34:12;;;;;;;4.20;3.03;;;;;;;;;;5004084;28;20562;-69
2022/07/17 13:36:37;;;;;;;4.65;2.28;;;;;;;;;;5003605;28;20179;-69
2022/07/17 13:39:02;;;;;;;3.57;2.40;;;;;;;;;;5003275;28;20224;-68
2022/07/17 13:41:27;;;;;;;3.40;2.33;;;;;;;;;;5007015;28;20435;-70
2022/07/17 13:43:53;;;;;;;3.27;2.10;;;;;;;;;;5035653;28;20182;-69
2022/07/17 13:46:18;;;;;;;3.13;2.40;;;;;;;;;;5005131;28;20725;-69
2022/07/17 13:48:43;;;;;;;3.23;2.93;;;;;;;;;;5004481;28;20308;-69
2022/07/17 13:51:08;;;;;;;4.82;3.53;;;;;;;;;;5003396;28;20426;-68
2022/07/17 13:53:35;;;;;;;5.05;2.83;;;;;;;;;;5003919;28;20264;-69
2022/07/17 13:56:00;;;;;;;3.97;2.58;;;;;;;;;;5005754;28;20182;-70
2022/07/17 13:58:25;;;;;;;4.07;3.30;;;;;;;;;;4988489;28;20239;-69
2022/07/17 14:00:50;;;;;;;4.60;3.37;;;;;;;;;;5005279;28;20268;-69
2022/07/17 14:03:15;;;;;;;3.97;3.57;;;;;;;;;;5005330;28;20276;-69
2022/07/17 14:05:40;;;;;;;4.07;3.70;;;;;;;;;;5004870;28;20430;-69
2022/07/17 14:08:06;;;;;;;4.20;3.70;;;;;;;;;;5005322;28;20205;-68
2022/07/17 14:10:31;;;;;;;3.97;3.55;;;;;;;;;;5008370;28;20621;-70
2022/07/17 14:12:57;;;;;;;4.18;3.78;;;;;;;;;;5007054;28;20179;-70
2022/07/17 14:15:22;;;;;;;5.53;4.13;;;;;;;;;;5001971;28;20185;-68
2022/07/17 14:17:47;;;;;;;5.03;4.30;;;;;;;;;;5005587;28;20252;-69
2022/07/17 14:20:12;;;;;;;4.23;3.10;;;;;;;;;;5006108;28;20186;-68
2022/07/17 14:22:38;;;;;;;6.55;4.55;;;;;;;;;;5011168;28;20427;-69
2022/07/17 14:25:03;;;;;;;5.15;4.53;;;;;;;;;;5003110;28;20320;-69
2022/07/17 14:27:28;;;;;;;6.25;4.35;;;;;;;;;;5002662;28;20197;-69
2022/07/17 14:29:53;;;;;;;5.07;4.30;;;;;;;;;;5025283;28;20757;-68
2022/07/17 14:32:18;;;;;;;4.33;3.93;;;;;;;;;;5030811;28;20178;-70
2022/07/17 14:34:44;;;;;;;4.80;4.30;;;;;;;;;;5028132;28;20170;-69